createdAt,value
2019-06-27T00:00:10.362Z,1017.92
2019-06-27T00:01:10.366Z,1017.96
2019-06-27T00:02:10.370Z,1017.99
2019-06-27T00:03:10.367Z,1018.00
2019-06-27T00:04:10.385Z,1017.98
2019-06-27T00:05:10.376Z,1017.99
2019-06-27T00:06:10.372Z,1017.93
2019-06-27T00:07:10.373Z,1018.00
2019-06-27T00:08:10.376Z,1018.02
2019-06-27T00:09:10.378Z,1018.00
2019-06-27T00:10:10.377Z,1018.05
2019-06-27T00:11:10.426Z,1018.04
2019-06-27T00:12:10.385Z,1018.03
2019-06-27T00:13:10.384Z,1018.06
2019-06-27T00:14:10.382Z,1018.05
2019-06-27T00:15:10.386Z,1018.04
2019-06-27T00:16:10.387Z,1018.08
2019-06-27T00:17:10.390Z,1018.06
2019-06-27T00:18:10.386Z,1018.04
2019-06-27T00:19:10.391Z,1018.08
2019-06-27T00:20:10.388Z,1018.03
2019-06-27T00:21:10.389Z,1018.14
2019-06-27T00:22:10.396Z,1018.12
2019-06-27T00:23:10.387Z,1018.10
2019-06-27T00:24:10.390Z,1018.20
2019-06-27T00:25:10.395Z,1018.19
2019-06-27T00:26:10.391Z,1018.19
2019-06-27T00:27:10.402Z,1018.19
2019-06-27T00:28:10.404Z,1018.18
2019-06-27T00:29:10.396Z,1018.20
2019-06-27T00:30:10.393Z,1018.21
2019-06-27T00:31:10.396Z,1018.25
2019-06-27T00:32:10.397Z,1018.24
2019-06-27T00:33:10.402Z,1018.20
2019-06-27T00:34:10.399Z,1018.28
2019-06-27T00:35:10.398Z,1018.21
2019-06-27T00:36:10.400Z,1018.24
2019-06-27T00:37:10.406Z,1018.25
2019-06-27T00:38:10.401Z,1018.27
2019-06-27T00:39:10.399Z,1018.32
2019-06-27T00:40:10.400Z,1018.25
2019-06-27T00:41:10.403Z,1018.27
2019-06-27T00:42:10.399Z,1018.30
2019-06-27T00:43:10.403Z,1018.33
2019-06-27T00:44:10.401Z,1018.34
2019-06-27T00:45:10.581Z,1018.34
2019-06-27T00:46:10.405Z,1018.34
2019-06-27T00:47:10.402Z,1018.34
2019-06-27T00:48:10.405Z,1018.34
2019-06-27T00:49:10.399Z,1018.26
2019-06-27T00:50:10.406Z,1018.35
2019-06-27T00:51:10.405Z,1018.37
2019-06-27T00:52:10.407Z,1018.41
2019-06-27T00:53:10.407Z,1018.36
2019-06-27T00:54:10.402Z,1018.30
2019-06-27T00:55:10.404Z,1018.34
2019-06-27T00:56:10.406Z,1018.35
2019-06-27T00:57:14.552Z,1018.38
2019-06-27T00:58:10.409Z,1018.39
2019-06-27T00:59:10.403Z,1018.41
2019-06-27T01:00:10.430Z,1018.34
2019-06-27T01:01:10.420Z,1018.39
2019-06-27T01:02:10.421Z,1018.35
2019-06-27T01:03:10.408Z,1018.41
2019-06-27T01:04:10.410Z,1018.42
2019-06-27T01:05:10.408Z,1018.47
2019-06-27T01:06:10.406Z,1018.47
2019-06-27T01:07:10.404Z,1018.49
2019-06-27T01:08:10.413Z,1018.51
2019-06-27T01:09:10.404Z,1018.51
2019-06-27T01:10:10.411Z,1018.53
2019-06-27T01:11:10.406Z,1018.57
2019-06-27T01:12:10.403Z,1018.59
2019-06-27T01:13:10.406Z,1018.56
2019-06-27T01:14:10.404Z,1018.59
2019-06-27T01:15:10.401Z,1018.58
2019-06-27T01:16:10.406Z,1018.61
2019-06-27T01:17:10.413Z,1018.61
2019-06-27T01:18:10.404Z,1018.61
2019-06-27T01:19:10.408Z,1018.69
2019-06-27T01:20:10.409Z,1018.62
2019-06-27T01:21:10.409Z,1018.69
2019-06-27T01:22:10.403Z,1018.70
2019-06-27T01:23:10.409Z,1018.67
2019-06-27T01:24:10.419Z,1018.72
2019-06-27T01:25:10.405Z,1018.75
2019-06-27T01:26:10.403Z,1018.75
2019-06-27T01:27:10.405Z,1018.76
2019-06-27T01:28:10.403Z,1018.75
2019-06-27T01:29:10.406Z,1018.78
2019-06-27T01:30:10.399Z,1018.79
2019-06-27T01:31:10.422Z,1018.85
2019-06-27T01:32:10.403Z,1018.81
2019-06-27T01:33:10.400Z,1018.80
2019-06-27T01:34:10.399Z,1018.83
2019-06-27T01:35:10.404Z,1018.80
2019-06-27T01:36:10.413Z,1018.83
2019-06-27T01:37:10.402Z,1018.87
2019-06-27T01:38:10.400Z,1018.84
2019-06-27T01:39:10.401Z,1018.86
2019-06-27T01:40:10.403Z,1018.90
2019-06-27T01:41:10.405Z,1018.86
2019-06-27T01:42:10.399Z,1018.86
2019-06-27T01:43:10.398Z,1018.86
2019-06-27T01:44:10.399Z,1018.88
2019-06-27T01:45:10.400Z,1018.86
2019-06-27T01:46:10.397Z,1018.88
2019-06-27T01:47:10.397Z,1018.88
2019-06-27T01:48:10.399Z,1018.90
2019-06-27T01:49:10.395Z,1018.86
2019-06-27T01:50:10.400Z,1018.84
2019-06-27T01:51:10.399Z,1018.86
2019-06-27T01:52:10.396Z,1018.85
2019-06-27T01:53:10.393Z,1018.86
2019-06-27T01:54:10.390Z,1018.87
2019-06-27T01:55:10.391Z,1018.88
2019-06-27T01:56:10.399Z,1018.89
2019-06-27T01:57:10.390Z,1018.95
2019-06-27T01:58:10.388Z,1018.90
2019-06-27T01:59:10.390Z,1018.93
2019-06-27T02:00:10.394Z,1018.87
2019-06-27T02:01:10.396Z,1018.89
2019-06-27T02:02:10.387Z,1018.87
2019-06-27T02:03:10.391Z,1018.91
2019-06-27T02:04:10.400Z,1018.88
2019-06-27T02:05:10.387Z,1018.88
2019-06-27T02:06:10.386Z,1018.90
2019-06-27T02:07:10.384Z,1018.85
2019-06-27T02:08:10.393Z,1018.88
2019-06-27T02:09:10.387Z,1018.89
2019-06-27T02:10:10.385Z,1018.93
2019-06-27T02:11:10.391Z,1018.91
2019-06-27T02:12:10.384Z,1018.90
2019-06-27T02:13:10.382Z,1018.89
2019-06-27T02:14:10.380Z,1018.97
2019-06-27T02:15:10.385Z,1018.93
2019-06-27T02:16:10.382Z,1018.90
2019-06-27T02:17:10.386Z,1018.92
2019-06-27T02:18:10.372Z,1018.90
2019-06-27T02:19:10.404Z,1018.95
2019-06-27T02:20:10.378Z,1018.93
2019-06-27T02:21:10.378Z,1018.95
2019-06-27T02:22:10.374Z,1018.93
2019-06-27T02:23:10.376Z,1018.93
2019-06-27T02:24:10.376Z,1018.93
2019-06-27T02:25:10.375Z,1018.95
2019-06-27T02:26:10.385Z,1018.94
2019-06-27T02:27:10.370Z,1018.95
2019-06-27T02:28:10.374Z,1018.98
2019-06-27T02:29:10.369Z,1019.02
2019-06-27T02:30:10.374Z,1019.03
2019-06-27T02:31:10.373Z,1018.99
2019-06-27T02:32:10.374Z,1019.00
2019-06-27T02:33:10.373Z,1019.00
2019-06-27T02:34:10.368Z,1018.98
2019-06-27T02:35:10.395Z,1019.00
2019-06-27T02:36:10.367Z,1019.01
2019-06-27T02:37:10.411Z,1019.01
2019-06-27T02:38:10.366Z,1018.98
2019-06-27T02:39:10.365Z,1018.98
2019-06-27T02:40:10.367Z,1019.02
2019-06-27T02:41:10.362Z,1018.98
2019-06-27T02:42:10.365Z,1018.98
2019-06-27T02:43:10.382Z,1018.95
2019-06-27T02:44:10.362Z,1018.95
2019-06-27T02:45:10.363Z,1018.97
2019-06-27T02:46:10.359Z,1018.98
2019-06-27T02:47:10.364Z,1018.99
2019-06-27T02:48:10.362Z,1019.03
2019-06-27T02:49:10.356Z,1019.01
2019-06-27T02:50:10.470Z,1018.99
2019-06-27T02:51:10.351Z,1019.06
2019-06-27T02:52:10.347Z,1019.00
2019-06-27T02:53:10.360Z,1019.08
2019-06-27T02:54:10.347Z,1019.04
2019-06-27T02:55:10.353Z,1019.07
2019-06-27T02:56:10.350Z,1019.06
2019-06-27T02:57:10.348Z,1019.09
2019-06-27T02:58:28.837Z,1019.12
2019-06-27T02:59:10.348Z,1019.12
2019-06-27T03:00:10.349Z,1019.15
2019-06-27T03:01:10.343Z,1019.14
2019-06-27T03:02:10.340Z,1019.16
2019-06-27T03:03:10.340Z,1019.07
2019-06-27T03:04:10.337Z,1019.10
2019-06-27T03:05:10.349Z,1019.13
2019-06-27T03:06:10.342Z,1019.11
2019-06-27T03:07:10.337Z,1019.16
2019-06-27T03:08:10.335Z,1019.12
2019-06-27T03:09:10.345Z,1019.15
2019-06-27T03:10:10.333Z,1019.14
2019-06-27T03:11:10.332Z,1019.22
2019-06-27T03:12:10.337Z,1019.23
2019-06-27T03:13:10.331Z,1019.19
2019-06-27T03:14:10.335Z,1019.19
2019-06-27T03:15:10.353Z,1019.20
2019-06-27T03:16:10.325Z,1019.20
2019-06-27T03:17:10.340Z,1019.19
2019-06-27T03:18:10.321Z,1019.22
2019-06-27T03:19:10.322Z,1019.21
2019-06-27T03:20:10.343Z,1019.22
2019-06-27T03:21:10.324Z,1019.20
2019-06-27T03:22:10.319Z,1019.18
2019-06-27T03:23:10.323Z,1019.26
2019-06-27T03:24:10.323Z,1019.19
2019-06-27T03:25:10.319Z,1019.18
2019-06-27T03:26:10.318Z,1019.18
2019-06-27T03:27:10.315Z,1019.19
2019-06-27T03:28:10.314Z,1019.21
2019-06-27T03:29:10.323Z,1019.13
2019-06-27T03:30:10.315Z,1019.15
2019-06-27T03:31:10.349Z,1019.18
2019-06-27T03:32:10.340Z,1019.22
2019-06-27T03:33:10.312Z,1019.19
2019-06-27T03:34:10.309Z,1019.26
2019-06-27T03:35:10.319Z,1019.21
2019-06-27T03:36:10.310Z,1019.17
2019-06-27T03:37:10.310Z,1019.23
2019-06-27T03:38:10.313Z,1019.18
2019-06-27T03:39:10.306Z,1019.30
2019-06-27T03:40:10.300Z,1019.30
2019-06-27T03:41:10.327Z,1019.27
2019-06-27T03:42:10.296Z,1019.24
2019-06-27T03:43:10.297Z,1019.24
2019-06-27T03:44:10.295Z,1019.30
2019-06-27T03:45:15.037Z,1019.25
2019-06-27T03:46:10.296Z,1019.23
2019-06-27T03:47:10.293Z,1019.38
2019-06-27T03:48:10.295Z,1019.33
2019-06-27T03:49:10.307Z,1019.35
2019-06-27T03:50:10.296Z,1019.34
2019-06-27T03:51:10.291Z,1019.31
2019-06-27T03:52:10.292Z,1019.32
2019-06-27T03:53:10.293Z,1019.38
2019-06-27T03:54:10.287Z,1019.42
2019-06-27T03:55:10.291Z,1019.39
2019-06-27T03:56:10.289Z,1019.42
2019-06-27T03:57:10.285Z,1019.43
2019-06-27T03:58:10.285Z,1019.41
2019-06-27T03:59:12.817Z,1019.41
2019-06-27T04:00:10.432Z,1019.43
2019-06-27T04:01:10.283Z,1019.48
2019-06-27T04:02:10.282Z,1019.48
2019-06-27T04:03:10.305Z,1019.56
2019-06-27T04:04:10.301Z,1019.50
2019-06-27T04:05:10.282Z,1019.53
2019-06-27T04:06:10.284Z,1019.51
2019-06-27T04:07:10.280Z,1019.56
2019-06-27T04:08:10.278Z,1019.70
2019-06-27T04:09:10.275Z,1019.63
2019-06-27T04:10:10.276Z,1019.64
2019-06-27T04:11:10.286Z,1019.68
2019-06-27T04:12:10.270Z,1019.64
2019-06-27T04:13:10.274Z,1019.64
2019-06-27T04:14:10.280Z,1019.66
2019-06-27T04:15:10.298Z,1019.63
2019-06-27T04:16:10.269Z,1019.65
2019-06-27T04:17:10.286Z,1019.65
2019-06-27T04:18:10.266Z,1019.66
2019-06-27T04:19:10.267Z,1019.69
2019-06-27T04:20:10.273Z,1019.68
2019-06-27T04:21:10.265Z,1019.69
2019-06-27T04:22:10.267Z,1019.69
2019-06-27T04:23:10.260Z,1019.79
2019-06-27T04:24:10.265Z,1019.78
2019-06-27T04:25:10.263Z,1019.79
2019-06-27T04:26:10.260Z,1019.59
2019-06-27T04:27:10.266Z,1019.75
2019-06-27T04:28:10.294Z,1019.79
2019-06-27T04:29:10.265Z,1019.67
2019-06-27T04:30:10.270Z,1019.65
2019-06-27T04:31:10.259Z,1019.58
2019-06-27T04:32:10.269Z,1019.59
2019-06-27T04:33:10.259Z,1019.79
2019-06-27T04:34:10.255Z,1019.78
2019-06-27T04:35:10.269Z,1019.80
2019-06-27T04:36:10.274Z,1019.78
2019-06-27T04:37:10.261Z,1019.65
2019-06-27T04:38:10.263Z,1019.79
2019-06-27T04:39:10.252Z,1019.65
2019-06-27T04:40:10.259Z,1019.75
2019-06-27T04:41:10.263Z,1019.69
2019-06-27T04:42:10.253Z,1019.71
2019-06-27T04:43:10.257Z,1019.72
2019-06-27T04:44:10.253Z,1019.71
2019-06-27T04:45:10.266Z,1019.86
2019-06-27T04:46:10.252Z,1019.78
2019-06-27T04:47:10.258Z,1019.84
2019-06-27T04:48:10.254Z,1019.77
2019-06-27T04:49:13.393Z,1019.84
2019-06-27T04:50:10.253Z,1019.70
2019-06-27T04:51:10.250Z,1019.88
2019-06-27T04:52:10.253Z,1019.83
2019-06-27T04:53:10.247Z,1019.81
2019-06-27T04:54:10.250Z,1019.93
2019-06-27T04:55:10.254Z,1019.91
2019-06-27T04:56:10.248Z,1019.90
2019-06-27T04:57:10.250Z,1019.77
2019-06-27T04:58:10.251Z,1019.77
2019-06-27T04:59:10.249Z,1019.85
2019-06-27T05:00:10.247Z,1019.73
2019-06-27T05:01:10.251Z,1019.95
2019-06-27T05:02:10.248Z,1019.89
2019-06-27T05:03:10.249Z,1019.92
2019-06-27T05:04:10.251Z,1019.90
2019-06-27T05:05:10.249Z,1019.82
2019-06-27T05:06:10.325Z,1019.97
2019-06-27T05:07:10.252Z,1019.97
2019-06-27T05:08:14.380Z,1019.92
2019-06-27T05:09:10.250Z,1019.75
2019-06-27T05:10:10.251Z,1019.90
2019-06-27T05:11:10.250Z,1019.65
2019-06-27T05:12:10.249Z,1019.83
2019-06-27T05:13:10.249Z,1019.89
2019-06-27T05:14:10.247Z,1019.92
2019-06-27T05:15:10.253Z,1019.92
2019-06-27T05:16:10.258Z,1019.99
2019-06-27T05:17:10.251Z,1019.98
2019-06-27T05:18:10.254Z,1019.98
2019-06-27T05:19:10.252Z,1019.96
2019-06-27T05:20:10.257Z,1019.97
2019-06-27T05:21:10.252Z,1019.97
2019-06-27T05:22:10.255Z,1019.92
2019-06-27T05:23:10.308Z,1019.91
2019-06-27T05:24:10.254Z,1019.88
2019-06-27T05:25:10.254Z,1019.89
2019-06-27T05:26:10.255Z,1019.93
2019-06-27T05:27:10.254Z,1019.90
2019-06-27T05:28:10.256Z,1019.89
2019-06-27T05:29:10.259Z,1019.88
2019-06-27T05:30:10.669Z,1019.86
2019-06-27T05:31:10.262Z,1019.88
2019-06-27T05:32:10.288Z,1019.86
2019-06-27T05:33:10.261Z,1019.87
2019-06-27T05:34:10.266Z,1019.88
2019-06-27T05:35:10.338Z,1019.91
2019-06-27T05:36:10.579Z,1019.99
2019-06-27T05:37:10.264Z,1019.96
2019-06-27T05:38:10.267Z,1019.99
2019-06-27T05:39:10.263Z,1019.99
2019-06-27T05:40:10.261Z,1019.98
2019-06-27T05:41:10.282Z,1020.01
2019-06-27T05:42:10.270Z,1020.00
2019-06-27T05:43:10.272Z,1019.86
2019-06-27T05:44:10.285Z,1019.83
2019-06-27T05:45:10.270Z,1019.95
2019-06-27T05:46:10.273Z,1019.91
2019-06-27T05:47:10.274Z,1019.95
2019-06-27T05:48:10.279Z,1019.89
2019-06-27T05:49:10.287Z,1020.03
2019-06-27T05:50:10.282Z,1019.89
2019-06-27T05:51:10.283Z,1019.90
2019-06-27T05:52:10.288Z,1019.97
2019-06-27T05:53:10.301Z,1019.96
2019-06-27T05:54:10.289Z,1020.05
2019-06-27T05:55:10.291Z,1020.04
2019-06-27T05:56:10.291Z,1020.08
2019-06-27T05:57:10.299Z,1020.09
2019-06-27T05:58:10.295Z,1020.09
2019-06-27T05:59:10.300Z,1019.98
2019-06-27T06:00:26.838Z,1020.02
2019-06-27T06:01:10.344Z,1020.08
2019-06-27T06:02:10.315Z,1020.10
2019-06-27T06:03:10.303Z,1020.03
2019-06-27T06:04:10.307Z,1020.07
2019-06-27T06:05:10.324Z,1019.96
2019-06-27T06:06:10.312Z,1020.03
2019-06-27T06:07:10.313Z,1020.00
2019-06-27T06:08:10.311Z,1020.03
2019-06-27T06:09:10.314Z,1020.03
2019-06-27T06:10:10.316Z,1020.00
2019-06-27T06:11:10.320Z,1020.07
2019-06-27T06:12:10.326Z,1020.09
2019-06-27T06:13:10.325Z,1020.14
2019-06-27T06:14:10.321Z,1019.94
2019-06-27T06:15:10.326Z,1020.10
2019-06-27T06:16:10.330Z,1019.96
2019-06-27T06:17:10.330Z,1020.10
2019-06-27T06:18:10.335Z,1020.12
2019-06-27T06:19:10.333Z,1020.11
2019-06-27T06:20:10.337Z,1020.08
2019-06-27T06:21:10.337Z,1020.14
2019-06-27T06:22:10.365Z,1020.09
2019-06-27T06:23:10.346Z,1019.99
2019-06-27T06:24:10.347Z,1020.07
2019-06-27T06:25:10.356Z,1020.09
2019-06-27T06:26:10.359Z,1020.08
2019-06-27T06:27:10.348Z,1020.04
2019-06-27T06:28:10.358Z,1020.07
2019-06-27T06:29:10.364Z,1020.18
2019-06-27T06:30:10.363Z,1020.00
2019-06-27T06:31:11.221Z,1020.02
2019-06-27T06:32:10.374Z,1020.05
2019-06-27T06:33:10.394Z,1020.02
2019-06-27T06:34:10.376Z,1020.04
2019-06-27T06:35:10.380Z,1020.01
2019-06-27T06:36:10.392Z,1019.99
2019-06-27T06:37:10.395Z,1020.02
2019-06-27T06:38:10.388Z,1019.97
2019-06-27T06:39:10.395Z,1019.92
2019-06-27T06:40:10.400Z,1019.97
2019-06-27T06:41:10.397Z,1019.94
2019-06-27T06:42:10.410Z,1020.00
2019-06-27T06:43:10.406Z,1020.01
2019-06-27T06:44:10.409Z,1020.05
2019-06-27T06:45:10.410Z,1020.09
2019-06-27T06:46:10.413Z,1020.06
2019-06-27T06:47:10.441Z,1020.03
2019-06-27T06:48:10.425Z,1019.95
2019-06-27T06:49:10.430Z,1020.05
2019-06-27T06:50:10.431Z,1020.11
2019-06-27T06:51:10.434Z,1020.11
2019-06-27T06:52:10.441Z,1020.07
2019-06-27T06:53:10.447Z,1019.96
2019-06-27T06:54:10.449Z,1020.04
2019-06-27T06:55:10.448Z,1019.98
2019-06-27T06:56:10.451Z,1020.04
2019-06-27T06:57:10.462Z,1020.07
2019-06-27T06:58:10.461Z,1020.06
2019-06-27T06:59:10.463Z,1020.06
2019-06-27T07:00:10.487Z,1020.06
2019-06-27T07:01:10.477Z,1020.10
2019-06-27T07:02:10.474Z,1020.07
2019-06-27T07:03:10.480Z,1020.06
2019-06-27T07:04:10.526Z,1020.07
2019-06-27T07:05:10.489Z,1020.05
2019-06-27T07:06:10.485Z,1020.11
2019-06-27T07:07:13.163Z,1020.08
2019-06-27T07:08:10.500Z,1020.06
2019-06-27T07:09:10.520Z,1020.11
2019-06-27T07:10:10.499Z,1020.11
2019-06-27T07:11:10.510Z,1020.12
2019-06-27T07:12:10.517Z,1020.07
2019-06-27T07:13:10.512Z,1020.11
2019-06-27T07:14:10.518Z,1020.13
2019-06-27T07:15:10.521Z,1020.15
2019-06-27T07:16:10.523Z,1020.11
2019-06-27T07:17:10.529Z,1020.13
2019-06-27T07:18:10.531Z,1020.10
2019-06-27T07:19:10.532Z,1020.09
2019-06-27T07:20:10.547Z,1020.19
2019-06-27T07:21:10.543Z,1020.16
2019-06-27T07:22:10.568Z,1020.16
2019-06-27T07:23:10.577Z,1020.11
2019-06-27T07:24:10.557Z,1020.14
2019-06-27T07:25:10.556Z,1020.13
2019-06-27T07:26:10.560Z,1020.17
2019-06-27T07:27:10.569Z,1020.19
2019-06-27T07:28:10.570Z,1020.16
2019-06-27T07:29:10.596Z,1020.19
2019-06-27T07:30:10.583Z,1020.15
2019-06-27T07:31:17.765Z,1020.16
2019-06-27T07:32:10.585Z,1020.18
2019-06-27T07:33:10.595Z,1020.21
2019-06-27T07:34:10.593Z,1020.18
2019-06-27T07:35:10.605Z,1020.21
2019-06-27T07:36:10.599Z,1020.25
2019-06-27T07:37:10.609Z,1020.22
2019-06-27T07:38:10.614Z,1020.16
2019-06-27T07:39:10.624Z,1020.20
2019-06-27T07:40:10.621Z,1020.21
2019-06-27T07:41:10.627Z,1020.20
2019-06-27T07:42:10.641Z,1020.13
2019-06-27T07:43:10.638Z,1020.15
2019-06-27T07:44:10.637Z,1020.11
2019-06-27T07:45:10.642Z,1020.06
2019-06-27T07:46:24.022Z,1020.17
2019-06-27T07:47:10.653Z,1020.22
2019-06-27T07:48:10.658Z,1020.19
2019-06-27T07:49:10.672Z,1020.21
2019-06-27T07:50:10.670Z,1020.21
2019-06-27T07:51:10.670Z,1020.23
2019-06-27T07:52:10.675Z,1020.17
2019-06-27T07:53:10.709Z,1020.21
2019-06-27T07:54:10.687Z,1020.23
2019-06-27T07:55:10.694Z,1020.25
2019-06-27T07:56:10.698Z,1020.25
2019-06-27T07:57:10.708Z,1020.21
2019-06-27T07:58:10.708Z,1020.16
2019-06-27T07:59:10.715Z,1020.20
2019-06-27T08:00:10.719Z,1020.24
2019-06-27T08:01:10.725Z,1020.22
2019-06-27T08:02:10.728Z,1020.26
2019-06-27T08:03:10.734Z,1020.26
2019-06-27T08:04:10.743Z,1020.27
2019-06-27T08:05:10.751Z,1020.33
2019-06-27T08:06:10.765Z,1020.35
2019-06-27T08:07:10.752Z,1020.29
2019-06-27T08:08:10.761Z,1020.44
2019-06-27T08:09:10.770Z,1020.40
2019-06-27T08:10:10.775Z,1020.32
2019-06-27T08:11:10.784Z,1020.36
2019-06-27T08:12:10.804Z,1020.42
2019-06-27T08:13:10.795Z,1020.45
2019-06-27T08:14:10.792Z,1020.47
2019-06-27T08:15:10.807Z,1020.41
2019-06-27T08:16:10.806Z,1020.42
2019-06-27T08:17:10.813Z,1020.38
2019-06-27T08:18:10.818Z,1020.39
2019-06-27T08:19:10.826Z,1020.41
2019-06-27T08:20:10.832Z,1020.42
2019-06-27T08:21:10.838Z,1020.47
2019-06-27T08:22:10.845Z,1020.40
2019-06-27T08:23:10.854Z,1020.41
2019-06-27T08:24:10.861Z,1020.40
2019-06-27T08:25:10.864Z,1020.38
2019-06-27T08:26:10.888Z,1020.47
2019-06-27T08:27:10.879Z,1020.49
2019-06-27T08:28:10.889Z,1020.52
2019-06-27T08:29:10.897Z,1020.50
2019-06-27T08:30:10.903Z,1020.50
2019-06-27T08:31:10.989Z,1020.43
2019-06-27T08:32:10.911Z,1020.42
2019-06-27T08:33:10.918Z,1020.45
2019-06-27T08:34:10.925Z,1020.43
2019-06-27T08:35:10.932Z,1020.33
2019-06-27T08:36:10.949Z,1020.38
2019-06-27T08:37:10.946Z,1020.39
2019-06-27T08:38:10.953Z,1020.40
2019-06-27T08:39:10.958Z,1020.30
2019-06-27T08:40:10.965Z,1020.40
2019-06-27T08:41:13.962Z,1020.45
2019-06-27T08:42:10.979Z,1020.41
2019-06-27T08:43:10.987Z,1020.50
2019-06-27T08:44:10.995Z,1020.50
2019-06-27T08:45:11.002Z,1020.52
2019-06-27T08:46:11.008Z,1020.54
2019-06-27T08:47:11.016Z,1020.52
2019-06-27T08:48:11.023Z,1020.50
2019-06-27T08:49:11.036Z,1020.55
2019-06-27T08:50:11.055Z,1020.52
2019-06-27T08:51:11.045Z,1020.52
2019-06-27T08:52:11.053Z,1020.48
2019-06-27T08:53:11.066Z,1020.47
2019-06-27T08:54:11.071Z,1020.46
2019-06-27T08:55:11.077Z,1020.49
2019-06-27T08:56:11.083Z,1020.43
2019-06-27T08:57:11.090Z,1020.48
2019-06-27T08:58:11.099Z,1020.50
2019-06-27T08:59:11.108Z,1020.49
2019-06-27T09:00:11.116Z,1020.39
2019-06-27T09:01:11.123Z,1020.27
2019-06-27T09:02:11.133Z,1020.23
2019-06-27T09:03:11.145Z,1020.19
2019-06-27T09:04:11.152Z,1020.15
2019-06-27T09:05:11.152Z,1020.10
2019-06-27T09:06:11.159Z,1020.01
2019-06-27T09:07:11.171Z,1019.91
2019-06-27T09:08:11.171Z,1019.93
2019-06-27T09:09:11.180Z,1019.95
2019-06-27T09:10:11.183Z,1019.94
2019-06-27T09:11:11.192Z,1019.93
2019-06-27T09:12:11.192Z,1019.90
2019-06-27T09:13:11.203Z,1019.89
2019-06-27T09:14:11.220Z,1019.99
2019-06-27T09:15:11.215Z,1019.98
2019-06-27T09:16:11.213Z,1019.92
2019-06-27T09:17:11.215Z,1019.94
2019-06-27T09:18:11.224Z,1019.99
2019-06-27T09:19:11.225Z,1019.99
2019-06-27T09:20:11.248Z,1019.89
2019-06-27T09:21:11.235Z,1019.97
2019-06-27T09:22:11.241Z,1019.90
2019-06-27T09:23:11.239Z,1020.00
2019-06-27T09:24:11.245Z,1019.98
2019-06-27T09:25:11.248Z,1019.92
2019-06-27T09:26:11.274Z,1020.00
2019-06-27T09:27:11.257Z,1020.02
2019-06-27T09:28:11.254Z,1019.96
2019-06-27T09:29:11.272Z,1019.95
2019-06-27T09:30:11.266Z,1019.89
2019-06-27T09:31:11.364Z,1019.99
2019-06-27T09:32:24.801Z,1019.96
2019-06-27T09:33:11.270Z,1019.89
2019-06-27T09:34:11.279Z,1019.86
2019-06-27T09:35:11.274Z,1019.89
2019-06-27T09:36:11.279Z,1019.90
2019-06-27T09:37:11.288Z,1019.93
2019-06-27T09:38:11.281Z,1019.98
2019-06-27T09:39:11.288Z,1019.96
2019-06-27T09:40:11.286Z,1019.96
2019-06-27T09:41:11.310Z,1019.99
2019-06-27T09:42:11.291Z,1019.99
2019-06-27T09:43:11.294Z,1019.99
2019-06-27T09:44:11.289Z,1019.95
2019-06-27T09:45:11.295Z,1019.90
2019-06-27T09:46:11.320Z,1019.90
2019-06-27T09:47:11.308Z,1019.97
2019-06-27T09:48:11.301Z,1019.97
2019-06-27T09:49:11.309Z,1019.93
2019-06-27T09:50:11.306Z,1019.97
2019-06-27T09:51:11.306Z,1019.95
2019-06-27T09:52:11.312Z,1019.94
2019-06-27T09:53:11.318Z,1020.00
2019-06-27T09:54:11.317Z,1019.97
2019-06-27T09:55:11.348Z,1019.91
2019-06-27T09:56:11.321Z,1019.89
2019-06-27T09:57:11.322Z,1019.89
2019-06-27T09:58:11.330Z,1019.83
2019-06-27T09:59:11.327Z,1019.86
2019-06-27T10:00:11.328Z,1019.86
2019-06-27T10:01:11.331Z,1019.90
2019-06-27T10:02:11.326Z,1019.88
2019-06-27T10:03:11.332Z,1019.94
2019-06-27T10:04:11.329Z,1019.94
2019-06-27T10:05:11.337Z,1019.88
2019-06-27T10:06:11.336Z,1019.88
2019-06-27T10:07:11.339Z,1019.83
2019-06-27T10:08:11.359Z,1019.86
2019-06-27T10:09:11.381Z,1019.89
2019-06-27T10:10:11.344Z,1019.86
2019-06-27T10:11:11.357Z,1019.90
2019-06-27T10:12:11.350Z,1019.88
2019-06-27T10:13:11.345Z,1019.86
2019-06-27T10:14:11.349Z,1019.85
2019-06-27T10:15:11.351Z,1019.81
2019-06-27T10:16:11.357Z,1019.87
2019-06-27T10:17:11.358Z,1019.81
2019-06-27T10:18:11.355Z,1019.86
2019-06-27T10:19:11.360Z,1019.84
2019-06-27T10:20:11.361Z,1019.84
2019-06-27T10:21:11.362Z,1019.82
2019-06-27T10:22:11.360Z,1019.86
2019-06-27T10:23:11.366Z,1019.85
2019-06-27T10:24:11.367Z,1019.83
2019-06-27T10:25:11.363Z,1019.86
2019-06-27T10:26:11.367Z,1019.83
2019-06-27T10:27:11.583Z,1019.81
2019-06-27T10:28:11.378Z,1019.84
2019-06-27T10:29:11.381Z,1019.75
2019-06-27T10:30:11.372Z,1019.82
2019-06-27T10:31:11.376Z,1019.83
2019-06-27T10:32:11.380Z,1019.81
2019-06-27T10:33:11.378Z,1019.81
2019-06-27T10:34:11.377Z,1019.79
2019-06-27T10:35:11.381Z,1019.85
2019-06-27T10:36:11.386Z,1019.83
2019-06-27T10:37:11.384Z,1019.83
2019-06-27T10:38:11.399Z,1019.83
2019-06-27T10:39:11.388Z,1019.78
2019-06-27T10:40:11.399Z,1019.80
2019-06-27T10:41:11.392Z,1019.83
2019-06-27T10:42:11.391Z,1019.70
2019-06-27T10:43:11.395Z,1019.80
2019-06-27T10:44:11.391Z,1019.84
2019-06-27T10:45:11.398Z,1019.87
2019-06-27T10:46:11.402Z,1019.79
2019-06-27T10:47:11.405Z,1019.80
2019-06-27T10:48:11.401Z,1019.80
2019-06-27T10:49:11.403Z,1019.79
2019-06-27T10:50:11.411Z,1019.75
2019-06-27T10:51:11.410Z,1019.77
2019-06-27T10:52:11.407Z,1019.75
2019-06-27T10:53:11.407Z,1019.76
2019-06-27T10:54:11.411Z,1019.75
2019-06-27T10:55:11.413Z,1019.77
2019-06-27T10:56:11.413Z,1019.75
2019-06-27T10:57:11.410Z,1019.70
2019-06-27T10:58:11.413Z,1019.78
2019-06-27T10:59:11.416Z,1019.75
2019-06-27T11:01:11.508Z,1019.78
2019-06-27T11:04:12.374Z,1019.69
2019-06-27T11:06:11.723Z,1019.72
2019-06-27T11:07:11.851Z,1019.74
2019-06-27T11:08:11.708Z,1019.65
2019-06-27T11:10:12.627Z,1019.67
2019-06-27T11:11:11.952Z,1019.65
2019-06-27T11:12:12.480Z,1019.58
2019-06-27T11:13:12.866Z,1019.62
2019-06-27T11:15:12.733Z,1019.61
2019-06-27T11:22:12.294Z,1019.54
2019-06-27T11:23:13.010Z,1019.55
2019-06-27T11:25:12.039Z,1019.57
2019-06-27T11:27:14.374Z,1019.51
2019-06-27T11:28:11.644Z,1019.50
2019-06-27T11:34:05.835Z,1019.44
2019-06-27T11:35:59.317Z,1019.40
2019-06-27T11:40:37.434Z,1019.42
2019-06-27T11:41:28.974Z,1019.42
2019-06-27T11:44:53.029Z,1019.39
2019-06-27T11:46:54.574Z,1019.41
2019-06-27T11:47:52.748Z,1019.36
2019-06-27T11:48:53.021Z,1019.32
2019-06-27T11:51:53.330Z,1019.26
2019-06-27T11:52:52.751Z,1019.31
2019-06-27T11:54:53.204Z,1019.26
2019-06-27T11:56:53.661Z,1019.20
2019-06-27T12:00:32.937Z,1019.17
2019-06-27T12:01:32.913Z,1019.26
2019-06-27T12:02:32.908Z,1019.16
2019-06-27T12:03:48.215Z,1019.22
2019-06-27T12:04:32.914Z,1019.09
2019-06-27T12:05:32.918Z,1019.08
2019-06-27T12:06:32.917Z,1019.03
2019-06-27T12:07:32.917Z,1019.08
2019-06-27T12:08:32.924Z,1019.06
2019-06-27T12:09:32.926Z,1019.00
2019-06-27T12:10:32.922Z,1019.13
2019-06-27T12:11:32.925Z,1019.03
2019-06-27T12:12:32.927Z,1019.10
2019-06-27T12:13:32.925Z,1019.13
2019-06-27T12:14:32.933Z,1019.10
2019-06-27T12:15:32.934Z,1019.02
2019-06-27T12:16:32.936Z,1019.05
2019-06-27T12:17:32.935Z,1019.04
2019-06-27T12:18:32.940Z,1018.99
2019-06-27T12:19:32.943Z,1019.01
2019-06-27T12:20:32.941Z,1019.10
2019-06-27T12:21:32.942Z,1019.04
2019-06-27T12:22:32.945Z,1018.99
2019-06-27T12:23:32.949Z,1018.99
2019-06-27T12:24:32.951Z,1019.01
2019-06-27T12:25:32.944Z,1019.00
2019-06-27T12:26:32.950Z,1018.98
2019-06-27T12:27:32.957Z,1018.94
2019-06-27T12:28:32.969Z,1018.92
2019-06-27T12:29:32.957Z,1018.94
2019-06-27T12:30:32.964Z,1018.95
2019-06-27T12:31:32.960Z,1018.96
2019-06-27T12:32:47.169Z,1018.93
2019-06-27T12:33:32.967Z,1018.99
2019-06-27T12:34:32.975Z,1018.93
2019-06-27T12:35:32.968Z,1018.87
2019-06-27T12:36:32.967Z,1018.93
2019-06-27T12:37:32.972Z,1018.88
2019-06-27T12:38:32.975Z,1018.96